createdAt,value
2023-03-22T00:00:41.612Z,97176.02
2023-03-22T00:03:20.709Z,97174.08
2023-03-22T00:05:51.068Z,97174.58
2023-03-22T00:08:21.026Z,97174.22
2023-03-22T00:10:49.932Z,97170.72
2023-03-22T00:13:19.852Z,97170.46
2023-03-22T00:15:49.686Z,97171.80
2023-03-22T00:18:20.366Z,97170.48
2023-03-22T00:20:51.415Z,97168.27
2023-03-22T00:23:20.843Z,97166.53
2023-03-22T00:25:50.515Z,97165.09
2023-03-22T00:28:20.265Z,97164.40
2023-03-22T00:30:54.047Z,97164.63
2023-03-22T00:33:23.303Z,97161.23
2023-03-22T00:35:55.253Z,97162.80
2023-03-22T00:38:39.487Z,97156.98
2023-03-22T00:41:16.502Z,97158.09
2023-03-22T00:43:47.608Z,97163.56
2023-03-22T00:46:18.622Z,97163.58
2023-03-22T00:48:48.652Z,97160.33
2023-03-22T00:51:18.655Z,97160.98
2023-03-22T00:53:51.432Z,97163.77
2023-03-22T00:56:23.478Z,97159.36
2023-03-22T00:59:00.833Z,97158.48
2023-03-22T01:01:33.610Z,97158.52
2023-03-22T01:04:06.856Z,97156.88
2023-03-22T01:06:38.147Z,97156.20
2023-03-22T01:09:15.693Z,97151.95
2023-03-22T01:11:47.921Z,97153.69
2023-03-22T01:14:20.796Z,97154.14
2023-03-22T01:16:54.559Z,97153.22
2023-03-22T01:19:25.674Z,97155.83
2023-03-22T01:21:57.000Z,97152.26
2023-03-22T01:24:28.056Z,97151.59
2023-03-22T01:26:58.685Z,97150.00
2023-03-22T01:29:29.810Z,97150.97
2023-03-22T01:31:59.661Z,97146.73
2023-03-22T01:34:29.443Z,97142.70
2023-03-22T01:37:01.464Z,97139.48
2023-03-22T01:39:33.240Z,97133.63
2023-03-22T01:42:15.026Z,97127.09
2023-03-22T01:45:10.250Z,97128.54
2023-03-22T01:47:57.491Z,97128.29
2023-03-22T01:50:29.815Z,97132.30
2023-03-22T01:53:07.162Z,97126.25
2023-03-22T01:55:43.365Z,97125.63
2023-03-22T01:58:21.768Z,97122.61
2023-03-22T02:00:57.414Z,97121.84
2023-03-22T02:03:59.615Z,97116.60
2023-03-22T02:06:33.263Z,97119.18
2023-03-22T02:09:10.423Z,97120.36
2023-03-22T02:11:50.029Z,97118.23
2023-03-22T02:14:40.443Z,97117.22
2023-03-22T02:17:56.178Z,97112.98
2023-03-22T02:21:00.725Z,97119.09
2023-03-22T02:23:36.255Z,97126.16
2023-03-22T02:26:22.767Z,97125.45
2023-03-22T02:29:00.994Z,97127.55
2023-03-22T02:31:42.473Z,97129.23
2023-03-22T02:34:20.316Z,97126.23
2023-03-22T02:37:06.272Z,97128.02
2023-03-22T02:39:37.786Z,97126.89
2023-03-22T02:42:10.006Z,97123.27
2023-03-22T02:44:48.442Z,97127.45
2023-03-22T02:47:25.507Z,97124.45
2023-03-22T02:50:00.045Z,97127.94
2023-03-22T02:52:42.406Z,97134.64
2023-03-22T02:55:28.656Z,97138.22
2023-03-22T02:58:22.977Z,97139.46
2023-03-22T03:00:56.071Z,97140.92
2023-03-22T03:03:32.551Z,97141.60
2023-03-22T03:06:09.460Z,97145.19
2023-03-22T03:08:42.282Z,97145.17
2023-03-22T03:11:14.837Z,97142.11
2023-03-22T03:13:48.360Z,97140.85
2023-03-22T03:16:21.939Z,97137.65
2023-03-22T03:19:11.183Z,97143.38
2023-03-22T03:21:43.814Z,97141.90
2023-03-22T03:24:23.024Z,97141.32
2023-03-22T03:27:11.518Z,97146.68
2023-03-22T03:30:00.519Z,97148.73
2023-03-22T03:32:43.509Z,97149.94
2023-03-22T03:35:25.411Z,97151.98
2023-03-22T03:38:03.616Z,97152.88
2023-03-22T03:40:35.586Z,97152.31
2023-03-22T03:43:09.818Z,97156.45
2023-03-22T03:45:39.771Z,97153.71
2023-03-22T03:48:13.050Z,97155.45
2023-03-22T03:50:42.853Z,97158.30
2023-03-22T03:53:13.540Z,97158.54
2023-03-22T03:55:43.948Z,97158.55
2023-03-22T03:58:17.261Z,97162.63
2023-03-22T04:00:48.740Z,97162.71
2023-03-22T04:03:33.644Z,97169.41
2023-03-22T04:06:04.207Z,97169.36
2023-03-22T04:08:37.519Z,97170.06
2023-03-22T04:11:07.404Z,97172.65
2023-03-22T04:13:40.590Z,97177.91
2023-03-22T04:16:13.483Z,97179.79
2023-03-22T04:18:43.334Z,97182.34
2023-03-22T04:21:16.998Z,97184.00
2023-03-22T04:23:55.901Z,97188.91
2023-03-22T04:26:27.500Z,97189.82
2023-03-22T04:29:09.760Z,97188.44
2023-03-22T04:31:41.547Z,97191.30
2023-03-22T04:34:22.419Z,97194.86
2023-03-22T04:36:56.262Z,97194.67
2023-03-22T04:39:30.727Z,97196.75
2023-03-22T04:42:17.739Z,97203.13
2023-03-22T04:44:47.353Z,97211.80
2023-03-22T04:47:16.737Z,97215.02
2023-03-22T04:49:46.274Z,97215.48
2023-03-22T04:52:18.028Z,97215.17
2023-03-22T04:54:54.381Z,97218.90
2023-03-22T04:57:25.004Z,97221.39
2023-03-22T04:59:54.668Z,97228.77
2023-03-22T05:02:23.329Z,97224.95
2023-03-22T05:04:52.389Z,97227.34
2023-03-22T05:07:32.957Z,97230.13
2023-03-22T05:10:03.186Z,97230.76
2023-03-22T05:12:32.391Z,97229.80
2023-03-22T05:15:16.524Z,97229.96
2023-03-22T05:17:45.719Z,97233.88
2023-03-22T05:20:16.822Z,97233.91
2023-03-22T05:22:50.872Z,97234.20
2023-03-22T05:25:20.888Z,97234.13
2023-03-22T05:27:51.014Z,97237.33
2023-03-22T05:30:43.545Z,97239.40
2023-03-22T05:33:23.305Z,97240.05
2023-03-22T05:35:54.995Z,97243.76
2023-03-22T05:38:26.120Z,97245.16
2023-03-22T05:40:56.424Z,97244.77
2023-03-22T05:43:26.043Z,97246.34
2023-03-22T05:45:55.606Z,97246.93
2023-03-22T05:48:54.113Z,97243.15
2023-03-22T05:51:26.292Z,97245.99
2023-03-22T05:53:55.581Z,97246.30
2023-03-22T05:56:29.382Z,97243.20
2023-03-22T05:59:05.351Z,97246.88
2023-03-22T06:01:34.057Z,97250.24
2023-03-22T06:04:14.007Z,97250.53
2023-03-22T06:07:03.055Z,97259.73
2023-03-22T06:09:50.587Z,97260.46
2023-03-22T06:12:28.262Z,97260.69
2023-03-22T06:15:04.234Z,97263.91
2023-03-22T06:17:47.970Z,97265.57
2023-03-22T06:20:20.307Z,97266.30
2023-03-22T06:22:54.356Z,97269.46
2023-03-22T06:25:24.607Z,97269.61
2023-03-22T06:27:53.681Z,97270.69
2023-03-22T06:30:23.101Z,97273.50
2023-03-22T06:33:11.071Z,97275.91
2023-03-22T06:35:41.945Z,97280.00
2023-03-22T06:38:12.477Z,97285.16
2023-03-22T06:40:42.225Z,97289.85
2023-03-22T06:43:11.063Z,97291.75
2023-03-22T06:45:41.527Z,97295.14
2023-03-22T06:48:10.853Z,97300.29
2023-03-22T06:50:49.617Z,97299.55
2023-03-22T06:53:27.742Z,97300.59
2023-03-22T06:55:56.811Z,97303.10
2023-03-22T06:58:26.551Z,97303.47
2023-03-22T07:00:57.032Z,97307.73
2023-03-22T07:03:25.839Z,97302.92
2023-03-22T07:06:06.291Z,97301.41
2023-03-22T07:08:36.216Z,97304.83
2023-03-22T07:11:05.525Z,97307.10
2023-03-22T07:13:35.129Z,97307.21
2023-03-22T07:16:06.825Z,97309.68
2023-03-22T07:18:49.184Z,97311.42
2023-03-22T07:21:18.275Z,97314.39
2023-03-22T07:23:50.821Z,97312.73
2023-03-22T07:26:20.868Z,97311.98
2023-03-22T07:28:50.782Z,97315.76
2023-03-22T07:31:20.803Z,97314.14
2023-03-22T07:33:55.317Z,97312.13
2023-03-22T07:36:26.014Z,97313.53
2023-03-22T07:38:55.476Z,97309.17
2023-03-22T07:41:44.328Z,97306.48
2023-03-22T07:44:22.527Z,97312.84
2023-03-22T07:47:10.100Z,97316.02
2023-03-22T07:50:01.715Z,97318.84
2023-03-22T07:52:34.512Z,97320.38
2023-03-22T07:55:03.843Z,97326.14
2023-03-22T07:57:32.773Z,97327.05
2023-03-22T08:00:01.956Z,97323.69
2023-03-22T08:02:46.559Z,97322.60
2023-03-22T08:05:33.829Z,97321.64
2023-03-22T08:08:04.536Z,97319.41
2023-03-22T08:10:33.666Z,97322.25
2023-03-22T08:13:03.183Z,97321.52
2023-03-22T08:15:32.057Z,97321.38
2023-03-22T08:18:01.148Z,97324.64
2023-03-22T08:20:34.451Z,97327.54
2023-03-22T08:23:11.840Z,97323.30
2023-03-22T08:26:19.431Z,97327.19
2023-03-22T08:28:48.332Z,97326.59
2023-03-22T08:31:17.801Z,97323.19
2023-03-22T08:33:47.757Z,97319.83
2023-03-22T08:36:18.298Z,97326.95
2023-03-22T08:38:51.669Z,97330.21
2023-03-22T08:41:24.707Z,97328.00
2023-03-22T08:43:53.448Z,97325.48
2023-03-22T08:46:22.451Z,97323.86
2023-03-22T08:48:53.065Z,97329.20
2023-03-22T08:51:28.648Z,97328.84
2023-03-22T08:54:14.088Z,97327.91
2023-03-22T08:56:55.475Z,97324.63
2023-03-22T08:59:52.617Z,97324.34
2023-03-22T09:02:39.960Z,97319.77
2023-03-22T09:05:09.868Z,97317.38
2023-03-22T09:07:39.468Z,97314.48
2023-03-22T09:10:17.688Z,97312.77
2023-03-22T09:12:48.940Z,97320.58
2023-03-22T09:15:18.238Z,97318.23
2023-03-22T09:17:49.982Z,97317.76
2023-03-22T09:20:19.190Z,97318.30
2023-03-22T09:22:48.167Z,97314.87
2023-03-22T09:25:17.793Z,97312.23
2023-03-22T09:27:48.616Z,97308.88
2023-03-22T09:30:17.813Z,97312.31
2023-03-22T09:32:46.399Z,97310.79
2023-03-22T09:35:16.811Z,97306.88
2023-03-22T09:38:07.006Z,97298.17
2023-03-22T09:40:37.952Z,97298.05
2023-03-22T09:43:07.986Z,97298.45
2023-03-22T09:45:42.168Z,97293.46
2023-03-22T09:48:22.488Z,97294.64
2023-03-22T09:50:52.961Z,97292.16
2023-03-22T09:53:23.805Z,97290.95
2023-03-22T09:55:55.353Z,97283.35
2023-03-22T09:58:26.592Z,97282.33
2023-03-22T10:00:55.153Z,97282.39
2023-03-22T10:03:29.805Z,97278.61
2023-03-22T10:06:18.773Z,97279.93
2023-03-22T10:08:59.944Z,97279.89
2023-03-22T10:11:34.467Z,97279.77
2023-03-22T10:14:21.397Z,97281.58
2023-03-22T10:16:51.503Z,97278.25
2023-03-22T10:19:23.993Z,97275.05
2023-03-22T10:21:55.009Z,97275.47
2023-03-22T10:24:29.118Z,97274.73
2023-03-22T10:26:58.151Z,97279.60
2023-03-22T10:29:27.539Z,97278.48
2023-03-22T10:31:57.221Z,97273.42
2023-03-22T10:34:36.977Z,97272.48
2023-03-22T10:37:07.893Z,97271.38
2023-03-22T10:39:39.981Z,97267.20
2023-03-22T10:42:14.925Z,97265.69
2023-03-22T10:44:48.835Z,97262.92
2023-03-22T10:47:19.963Z,97265.83
2023-03-22T10:49:54.656Z,97260.09
2023-03-22T10:52:35.061Z,97258.34
2023-03-22T10:55:05.097Z,97255.29
2023-03-22T10:57:34.365Z,97249.70
2023-03-22T11:00:09.411Z,97248.95
2023-03-22T11:02:45.170Z,97245.52
2023-03-22T11:05:21.210Z,97246.15
2023-03-22T11:07:49.796Z,97237.86
2023-03-22T11:10:25.241Z,97236.50
2023-03-22T11:12:55.559Z,97234.42
2023-03-22T11:15:26.904Z,97234.56
2023-03-22T11:18:00.646Z,97230.85
2023-03-22T11:20:37.739Z,97227.89
2023-03-22T11:23:07.311Z,97223.53
2023-03-22T11:25:39.053Z,97224.60
2023-03-22T11:28:10.815Z,97222.83
2023-03-22T11:30:39.788Z,97219.02
2023-03-22T11:33:08.977Z,97216.86
2023-03-22T11:35:39.131Z,97215.41
2023-03-22T11:38:22.677Z,97213.73
2023-03-22T11:41:02.151Z,97208.30
2023-03-22T11:43:36.934Z,97207.22
2023-03-22T11:46:07.995Z,97211.98
2023-03-22T11:48:37.315Z,97210.31
2023-03-22T11:51:07.967Z,97205.43
2023-03-22T11:53:38.946Z,97203.59
2023-03-22T11:56:09.598Z,97201.98
2023-03-22T11:58:38.158Z,97199.73
2023-03-22T12:01:10.529Z,97197.98
2023-03-22T12:03:41.309Z,97194.98
2023-03-22T12:06:21.243Z,97191.23
2023-03-22T12:08:54.297Z,97190.16
2023-03-22T12:11:36.654Z,97189.36
2023-03-22T12:14:09.917Z,97186.69
2023-03-22T12:16:47.034Z,97184.67
2023-03-22T12:19:24.372Z,97181.64
2023-03-22T12:21:53.174Z,97182.17
2023-03-22T12:24:31.684Z,97181.73
2023-03-22T12:27:05.176Z,97183.92
2023-03-22T12:29:34.276Z,97182.13
2023-03-22T12:32:07.450Z,97174.84
2023-03-22T12:34:41.681Z,97177.10
2023-03-22T12:37:15.170Z,97178.26
2023-03-22T12:39:47.553Z,97172.52
2023-03-22T12:42:22.320Z,97171.92
2023-03-22T12:45:04.137Z,97166.39
2023-03-22T12:47:42.108Z,97168.69
2023-03-22T12:50:20.175Z,97167.02
2023-03-22T12:52:50.294Z,97164.05
2023-03-22T12:55:31.059Z,97159.70
2023-03-22T12:58:00.569Z,97158.23
2023-03-22T13:00:45.224Z,97155.54
2023-03-22T13:03:16.793Z,97149.23
2023-03-22T13:05:46.385Z,97147.09
2023-03-22T13:08:24.771Z,97142.47
2023-03-22T13:11:06.308Z,97144.00
2023-03-22T13:13:41.535Z,97141.64
2023-03-22T13:16:10.135Z,97142.52
2023-03-22T13:18:39.105Z,97142.41
2023-03-22T13:21:30.233Z,97141.15
2023-03-22T13:24:06.730Z,97136.84
2023-03-22T13:26:58.521Z,97131.02
2023-03-22T13:29:33.552Z,97133.61
2023-03-22T13:32:06.487Z,97133.48
2023-03-22T13:34:38.086Z,97135.98
2023-03-22T13:37:31.994Z,97133.52
2023-03-22T13:40:02.470Z,97138.84
2023-03-22T13:42:37.005Z,97138.70
2023-03-22T13:45:09.280Z,97136.58
2023-03-22T13:47:43.985Z,97135.44
2023-03-22T13:50:13.185Z,97132.45
2023-03-22T13:52:44.246Z,97134.15
2023-03-22T13:55:37.247Z,97132.28
2023-03-22T13:58:09.371Z,97127.79
2023-03-22T14:00:41.074Z,97129.66
2023-03-22T14:03:30.671Z,97128.39
2023-03-22T14:06:05.037Z,97130.04
2023-03-22T14:08:35.134Z,97131.72
2023-03-22T14:11:10.584Z,97129.85
2023-03-22T14:13:48.476Z,97132.39
2023-03-22T14:16:29.422Z,97129.02
2023-03-22T14:18:59.162Z,97128.05
2023-03-22T14:21:37.583Z,97126.38
